Spirit Of Boston — WDD4774 — position and weather

sailwx.info

Track history (hours):
 
Tides and Currents Weather Stations Pressure Air Temp Water Temp Dewpoint Dewpoint Depression Visibility Wind Speed Wind Dir Waves Ship Positions

Spirit Of Boston

Owner: Spirit Cruises, LLC, Boston, MA. More information available from US FCC via Universal Licensing System and Coast Guard Vessel Documentation Center.

Last reported at 2017-Nov-19 02:49 UTC. Time now 2017-Nov-19 04:38 UTC.
Position N 42°21' W 071°02'.

; draft 3.5 m.

Type: Passenger vessel. MMSI: 367148860.

Date/timePositionNaut miles runAvg speedWind from/ knotsBaromVisibWave heightAir tempDewpointWater temp
2017-Nov-19 02:49N 42°21' W 071°02'0 1.3
2017-Nov-19 02:30N 42°22' W 071°03'1 1.1
2017-Nov-19 02:00N 42°21' W 071°02'2 3.4
2017-Nov-19 01:30N 42°20' W 071°00'2 5.0
2017-Nov-19 01:00N 42°22' W 071°03'1 1.2
2017-Nov-19 00:30N 42°21' W 071°02'0 0.0
2017-Nov-18 02:48N 42°21' W 071°03'0 1.7
2017-Nov-18 02:31N 42°22' W 071°02'2 3.2
2017-Nov-18 02:00N 42°20' W 071°00'1 2.8
2017-Nov-18 01:31N 42°20' W 070°59'3 5.8
2017-Nov-18 01:00N 42°21' W 071°02'2 4.1
2017-Nov-18 00:31N 42°23' W 071°04'2 0.1
2017-Nov-17 02:49N 42°21' W 071°02'1 3.1
2017-Nov-17 02:30N 42°21' W 071°01'2 4.0
2017-Nov-17 02:00N 42°20' W 070°59'2 4.4
2017-Nov-17 01:30N 42°21' W 071°01'2 3.5
2017-Nov-17 01:00N 42°22' W 071°03'0 0.9
2017-Nov-17 00:30N 42°23' W 071°03'  
2017-Nov-12 00:33N 42°21' W 071°03'0 1.9
2017-Nov-12 00:29N 42°21' W 071°02'1 2.6
2017-Nov-12 00:00N 42°22' W 071°03'1 1.3
2017-Nov-11 23:30N 42°22' W 071°03'2 4.1
2017-Nov-11 23:00N 42°20' W 071°00'1 2.2
2017-Nov-11 22:29N 42°20' W 070°59'2 3.2
2017-Nov-11 22:00N 42°21' W 071°01'2 0.1
2017-Nov-10 23:51N 42°22' W 071°03'1 2.1
2017-Nov-10 23:31N 42°22' W 071°03'0 0.1
2017-Nov-10 23:00N 42°22' W 071°03'  
Track history (hours):
 
Tides and Currents Weather Stations Pressure Air Temp Water Temp Dewpoint Dewpoint Depression Visibility Wind Speed Wind Dir Waves Ship Positions

Spirit Of Boston

Owner: Spirit Cruises, LLC, Boston, MA. More information available from US FCC via Universal Licensing System and Coast Guard Vessel Documentation Center.

Last reported at 2017-Nov-19 02:49 UTC. Time now 2017-Nov-19 04:38 UTC.
Position N 42°21' W 071°02'.

; draft 3.5 m.

Type: Passenger vessel. MMSI: 367148860.

Date/timePositionNaut miles runAvg speedWind from/ knotsBaromVisibWave heightAir tempDewpointWater temp
2017-Nov-19 02:49N 42°21' W 071°02'0 1.3
2017-Nov-19 02:30N 42°22' W 071°03'1 1.1
2017-Nov-19 02:00N 42°21' W 071°02'2 3.4
2017-Nov-19 01:30N 42°20' W 071°00'2 5.0
2017-Nov-19 01:00N 42°22' W 071°03'1 1.2
2017-Nov-19 00:30N 42°21' W 071°02'0 0.0
2017-Nov-18 02:48N 42°21' W 071°03'0 1.7
2017-Nov-18 02:31N 42°22' W 071°02'2 3.2
2017-Nov-18 02:00N 42°20' W 071°00'1 2.8
2017-Nov-18 01:31N 42°20' W 070°59'3 5.8
2017-Nov-18 01:00N 42°21' W 071°02'2 4.1
2017-Nov-18 00:31N 42°23' W 071°04'2 0.1
2017-Nov-17 02:49N 42°21' W 071°02'1 3.1
2017-Nov-17 02:30N 42°21' W 071°01'2 4.0
2017-Nov-17 02:00N 42°20' W 070°59'2 4.4
2017-Nov-17 01:30N 42°21' W 071°01'2 3.5
2017-Nov-17 01:00N 42°22' W 071°03'0 0.9
2017-Nov-17 00:30N 42°23' W 071°03'  
2017-Nov-12 00:33N 42°21' W 071°03'0 1.9
2017-Nov-12 00:29N 42°21' W 071°02'1 2.6
2017-Nov-12 00:00N 42°22' W 071°03'1 1.3
2017-Nov-11 23:30N 42°22' W 071°03'2 4.1
2017-Nov-11 23:00N 42°20' W 071°00'1 2.2
2017-Nov-11 22:29N 42°20' W 070°59'2 3.2
2017-Nov-11 22:00N 42°21' W 071°01'2 0.1
2017-Nov-10 23:51N 42°22' W 071°03'1 2.1
2017-Nov-10 23:31N 42°22' W 071°03'0 0.1
2017-Nov-10 23:00N 42°22' W 071°03'  

Dump ship's entire track history